sensor_id;sensor_type;location;lat;lon;timestamp;temperature;humidity
59999;DHT22;45859;51.378;6.736;2023-04-28T00:01:11;9.20;99.90
59999;DHT22;45859;51.378;6.736;2023-04-28T00:03:36;9.10;99.90
59999;DHT22;45859;51.378;6.736;2023-04-28T00:06:02;9.00;99.90
59999;DHT22;45859;51.378;6.736;2023-04-28T00:08:28;8.90;99.90
59999;DHT22;45859;51.378;6.736;2023-04-28T00:10:54;8.90;99.90
59999;DHT22;45859;51.378;6.736;2023-04-28T00:13:20;9.00;99.90
59999;DHT22;45859;51.378;6.736;2023-04-28T00:15:45;9.00;99.90
59999;DHT22;45859;51.378;6.736;2023-04-28T00:18:11;8.60;99.90
59999;DHT22;45859;51.378;6.736;2023-04-28T00:20:37;8.90;99.90
59999;DHT22;45859;51.378;6.736;2023-04-28T00:23:02;8.80;99.90
59999;DHT22;45859;51.378;6.736;2023-04-28T00:25:28;8.80;99.90
59999;DHT22;45859;51.378;6.736;2023-04-28T00:27:54;8.80;99.90
59999;DHT22;45859;51.378;6.736;2023-04-28T00:30:20;8.80;99.90
59999;DHT22;45859;51.378;6.736;2023-04-28T00:32:45;8.90;99.90
59999;DHT22;45859;51.378;6.736;2023-04-28T00:35:11;8.90;99.90
59999;DHT22;45859;51.378;6.736;2023-04-28T00:37:37;8.90;99.90
59999;DHT22;45859;51.378;6.736;2023-04-28T00:40:03;9.70;99.90
59999;DHT22;45859;51.378;6.736;2023-04-28T00:42:29;8.80;99.90
59999;DHT22;45859;51.378;6.736;2023-04-28T00:44:56;8.70;99.90
59999;DHT22;45859;51.378;6.736;2023-04-28T00:47:22;8.70;99.90
59999;DHT22;45859;51.378;6.736;2023-04-28T00:49:48;8.80;99.90
59999;DHT22;45859;51.378;6.736;2023-04-28T00:52:14;7.40;99.90
59999;DHT22;45859;51.378;6.736;2023-04-28T00:54:40;8.70;99.90
59999;DHT22;45859;51.378;6.736;2023-04-28T00:57:08;8.70;99.90
59999;DHT22;45859;51.378;6.736;2023-04-28T00:59:35;8.60;99.90
59999;DHT22;45859;51.378;6.736;2023-04-28T01:02:01;7.90;99.90
59999;DHT22;45859;51.378;6.736;2023-04-28T01:04:29;8.40;99.90
59999;DHT22;45859;51.378;6.736;2023-04-28T01:06:55;8.40;99.90
59999;DHT22;45859;51.378;6.736;2023-04-28T01:09:21;8.30;99.90
59999;DHT22;45859;51.378;6.736;2023-04-28T01:11:47;8.30;99.90
59999;DHT22;45859;51.378;6.736;2023-04-28T01:14:12;8.30;99.90
59999;DHT22;45859;51.378;6.736;2023-04-28T01:16:39;8.30;99.90
59999;DHT22;45859;51.378;6.736;2023-04-28T01:19:06;8.40;99.90
59999;DHT22;45859;51.378;6.736;2023-04-28T01:21:33;8.30;99.90
59999;DHT22;45859;51.378;6.736;2023-04-28T01:23:59;8.40;99.90
59999;DHT22;45859;51.378;6.736;2023-04-28T01:26:25;8.30;99.90
59999;DHT22;45859;51.378;6.736;2023-04-28T01:28:51;8.10;99.90
59999;DHT22;45859;51.378;6.736;2023-04-28T01:31:17;8.30;99.90
59999;DHT22;45859;51.378;6.736;2023-04-28T01:33:43;8.40;99.90
59999;DHT22;45859;51.378;6.736;2023-04-28T01:36:09;8.30;99.90
59999;DHT22;45859;51.378;6.736;2023-04-28T01:38:35;8.00;99.90
59999;DHT22;45859;51.378;6.736;2023-04-28T01:41:00;8.80;99.90
59999;DHT22;45859;51.378;6.736;2023-04-28T01:43:27;8.40;99.90
59999;DHT22;45859;51.378;6.736;2023-04-28T01:45:53;8.40;99.90
59999;DHT22;45859;51.378;6.736;2023-04-28T01:48:19;8.60;99.90
59999;DHT22;45859;51.378;6.736;2023-04-28T01:50:44;8.40;99.90
59999;DHT22;45859;51.378;6.736;2023-04-28T01:53:10;8.50;99.90
59999;DHT22;45859;51.378;6.736;2023-04-28T01:55:37;9.40;99.90
59999;DHT22;45859;51.378;6.736;2023-04-28T01:58:03;8.30;99.90
59999;DHT22;45859;51.378;6.736;2023-04-28T02:00:29;9.50;99.90
59999;DHT22;45859;51.378;6.736;2023-04-28T02:02:55;8.40;99.90
59999;DHT22;45859;51.378;6.736;2023-04-28T02:05:20;8.40;99.90
59999;DHT22;45859;51.378;6.736;2023-04-28T02:07:46;8.40;99.90
59999;DHT22;45859;51.378;6.736;2023-04-28T02:10:12;8.50;99.90
59999;DHT22;45859;51.378;6.736;2023-04-28T02:12:37;8.50;99.90
59999;DHT22;45859;51.378;6.736;2023-04-28T02:15:04;8.50;99.90
59999;DHT22;45859;51.378;6.736;2023-04-28T02:17:29;8.50;99.90
59999;DHT22;45859;51.378;6.736;2023-04-28T02:19:55;8.50;99.90
59999;DHT22;45859;51.378;6.736;2023-04-28T02:22:22;8.40;99.90
59999;DHT22;45859;51.378;6.736;2023-04-28T02:24:50;8.60;99.90
59999;DHT22;45859;51.378;6.736;2023-04-28T02:27:16;8.50;99.90
59999;DHT22;45859;51.378;6.736;2023-04-28T02:29:42;8.50;99.90
59999;DHT22;45859;51.378;6.736;2023-04-28T02:32:08;8.60;99.90
59999;DHT22;45859;51.378;6.736;2023-04-28T02:34:33;8.60;99.90
59999;DHT22;45859;51.378;6.736;2023-04-28T02:36:59;7.30;99.90
59999;DHT22;45859;51.378;6.736;2023-04-28T02:39:26;8.70;99.90
59999;DHT22;45859;51.378;6.736;2023-04-28T02:41:52;9.00;99.90
59999;DHT22;45859;51.378;6.736;2023-04-28T02:44:19;8.60;99.90
59999;DHT22;45859;51.378;6.736;2023-04-28T02:46:45;8.70;99.90
59999;DHT22;45859;51.378;6.736;2023-04-28T02:49:11;8.70;99.90
59999;DHT22;45859;51.378;6.736;2023-04-28T02:51:37;8.00;99.90
59999;DHT22;45859;51.378;6.736;2023-04-28T02:54:02;8.60;99.90
59999;DHT22;45859;51.378;6.736;2023-04-28T02:56:28;8.70;99.90
59999;DHT22;45859;51.378;6.736;2023-04-28T02:58:54;7.80;99.90
59999;DHT22;45859;51.378;6.736;2023-04-28T03:01:20;8.60;99.90
59999;DHT22;45859;51.378;6.736;2023-04-28T03:03:46;8.60;99.90
59999;DHT22;45859;51.378;6.736;2023-04-28T03:06:11;8.70;99.90
59999;DHT22;45859;51.378;6.736;2023-04-28T03:08:37;8.70;99.90
59999;DHT22;45859;51.378;6.736;2023-04-28T03:11:03;9.80;99.90
59999;DHT22;45859;51.378;6.736;2023-04-28T03:13:29;8.70;99.90
59999;DHT22;45859;51.378;6.736;2023-04-28T03:15:55;8.80;99.90
59999;DHT22;45859;51.378;6.736;2023-04-28T03:18:20;8.90;99.90
59999;DHT22;45859;51.378;6.736;2023-04-28T03:20:47;8.90;99.90
59999;DHT22;45859;51.378;6.736;2023-04-28T03:23:13;8.90;99.90
59999;DHT22;45859;51.378;6.736;2023-04-28T03:25:38;9.00;99.90
59999;DHT22;45859;51.378;6.736;2023-04-28T03:28:04;9.10;99.90
59999;DHT22;45859;51.378;6.736;2023-04-28T03:30:30;10.10;99.90
59999;DHT22;45859;51.378;6.736;2023-04-28T03:32:56;9.00;99.90
59999;DHT22;45859;51.378;6.736;2023-04-28T03:35:22;9.00;99.90
59999;DHT22;45859;51.378;6.736;2023-04-28T03:37:47;9.10;99.90
59999;DHT22;45859;51.378;6.736;2023-04-28T03:40:13;9.10;99.90
59999;DHT22;45859;51.378;6.736;2023-04-28T03:42:39;9.10;99.90
59999;DHT22;45859;51.378;6.736;2023-04-28T03:45:06;9.10;99.90
59999;DHT22;45859;51.378;6.736;2023-04-28T03:47:32;9.10;99.90
59999;DHT22;45859;51.378;6.736;2023-04-28T03:49:58;9.30;99.90
59999;DHT22;45859;51.378;6.736;2023-04-28T03:52:24;9.30;99.90
59999;DHT22;45859;51.378;6.736;2023-04-28T03:54:50;9.10;99.90
59999;DHT22;45859;51.378;6.736;2023-04-28T03:57:16;8.00;99.90
59999;DHT22;45859;51.378;6.736;2023-04-28T03:59:42;9.30;99.90
59999;DHT22;45859;51.378;6.736;2023-04-28T04:02:08;9.20;99.90
59999;DHT22;45859;51.378;6.736;2023-04-28T04:04:33;9.30;99.90
59999;DHT22;45859;51.378;6.736;2023-04-28T04:06:59;9.20;99.90
59999;DHT22;45859;51.378;6.736;2023-04-28T04:09:25;9.10;99.90
59999;DHT22;45859;51.378;6.736;2023-04-28T04:11:50;9.20;99.90
59999;DHT22;45859;51.378;6.736;2023-04-28T04:14:16;9.20;99.90
59999;DHT22;45859;51.378;6.736;2023-04-28T04:16:42;9.20;99.90
59999;DHT22;45859;51.378;6.736;2023-04-28T04:19:08;9.20;99.90
59999;DHT22;45859;51.378;6.736;2023-04-28T04:21:33;9.30;99.90
59999;DHT22;45859;51.378;6.736;2023-04-28T04:23:59;9.30;99.90
59999;DHT22;45859;51.378;6.736;2023-04-28T04:26:25;9.30;99.90
59999;DHT22;45859;51.378;6.736;2023-04-28T04:28:51;9.30;99.90
59999;DHT22;45859;51.378;6.736;2023-04-28T04:31:17;9.30;99.90
59999;DHT22;45859;51.378;6.736;2023-04-28T04:33:44;9.30;99.90
59999;DHT22;45859;51.378;6.736;2023-04-28T04:36:10;9.40;99.90
59999;DHT22;45859;51.378;6.736;2023-04-28T04:38:35;9.40;99.90
59999;DHT22;45859;51.378;6.736;2023-04-28T04:41:01;9.40;99.90
59999;DHT22;45859;51.378;6.736;2023-04-28T04:43:27;9.40;99.90
59999;DHT22;45859;51.378;6.736;2023-04-28T04:45:53;9.40;99.90
59999;DHT22;45859;51.378;6.736;2023-04-28T04:48:19;9.40;99.90
59999;DHT22;45859;51.378;6.736;2023-04-28T04:50:45;9.40;99.90
59999;DHT22;45859;51.378;6.736;2023-04-28T04:53:10;9.40;99.90
59999;DHT22;45859;51.378;6.736;2023-04-28T04:55:37;9.50;99.90
59999;DHT22;45859;51.378;6.736;2023-04-28T04:58:02;9.40;99.90
59999;DHT22;45859;51.378;6.736;2023-04-28T05:00:28;9.50;99.90
59999;DHT22;45859;51.378;6.736;2023-04-28T05:02:54;9.40;99.90
59999;DHT22;45859;51.378;6.736;2023-04-28T05:05:20;9.50;99.90
59999;DHT22;45859;51.378;6.736;2023-04-28T05:07:46;9.50;99.90
59999;DHT22;45859;51.378;6.736;2023-04-28T05:10:11;9.50;99.90
59999;DHT22;45859;51.378;6.736;2023-04-28T05:12:37;9.50;99.90
59999;DHT22;45859;51.378;6.736;2023-04-28T05:15:06;9.50;99.90
59999;DHT22;45859;51.378;6.736;2023-04-28T05:17:33;9.60;99.90
59999;DHT22;45859;51.378;6.736;2023-04-28T05:19:58;9.60;99.90
59999;DHT22;45859;51.378;6.736;2023-04-28T05:22:24;9.60;99.90
59999;DHT22;45859;51.378;6.736;2023-04-28T05:24:50;9.60;99.90
59999;DHT22;45859;51.378;6.736;2023-04-28T05:27:17;9.60;99.90
59999;DHT22;45859;51.378;6.736;2023-04-28T05:29:43;9.60;99.90
59999;DHT22;45859;51.378;6.736;2023-04-28T05:32:08;9.70;99.90
59999;DHT22;45859;51.378;6.736;2023-04-28T05:34:34;9.70;99.90
59999;DHT22;45859;51.378;6.736;2023-04-28T05:37:00;9.70;99.90
59999;DHT22;45859;51.378;6.736;2023-04-28T05:39:25;9.80;99.90
59999;DHT22;45859;51.378;6.736;2023-04-28T05:41:51;9.80;99.90
59999;DHT22;45859;51.378;6.736;2023-04-28T05:44:17;9.80;99.90
59999;DHT22;45859;51.378;6.736;2023-04-28T05:46:42;9.90;99.90
59999;DHT22;45859;51.378;6.736;2023-04-28T05:49:09;9.90;99.90
59999;DHT22;45859;51.378;6.736;2023-04-28T05:51:35;9.80;99.90
59999;DHT22;45859;51.378;6.736;2023-04-28T05:54:01;9.90;99.90
59999;DHT22;45859;51.378;6.736;2023-04-28T05:56:27;9.90;99.90
59999;DHT22;45859;51.378;6.736;2023-04-28T05:58:53;10.00;99.90
59999;DHT22;45859;51.378;6.736;2023-04-28T06:01:20;10.00;99.90
59999;DHT22;45859;51.378;6.736;2023-04-28T06:03:46;10.00;99.90
59999;DHT22;45859;51.378;6.736;2023-04-28T06:06:12;10.10;99.90
59999;DHT22;45859;51.378;6.736;2023-04-28T06:08:38;10.10;99.90
59999;DHT22;45859;51.378;6.736;2023-04-28T06:11:04;10.20;99.90
59999;DHT22;45859;51.378;6.736;2023-04-28T06:13:29;10.20;99.90
59999;DHT22;45859;51.378;6.736;2023-04-28T06:15:55;10.20;99.90
59999;DHT22;45859;51.378;6.736;2023-04-28T06:18:22;10.20;99.90
59999;DHT22;45859;51.378;6.736;2023-04-28T06:20:48;10.30;99.90
59999;DHT22;45859;51.378;6.736;2023-04-28T06:23:14;10.40;99.90
59999;DHT22;45859;51.378;6.736;2023-04-28T06:25:40;10.50;99.90
59999;DHT22;45859;51.378;6.736;2023-04-28T06:28:06;10.60;99.90
59999;DHT22;45859;51.378;6.736;2023-04-28T06:30:33;10.80;99.90
59999;DHT22;45859;51.378;6.736;2023-04-28T06:32:59;10.80;99.90
59999;DHT22;45859;51.378;6.736;2023-04-28T06:35:25;10.90;99.90
59999;DHT22;45859;51.378;6.736;2023-04-28T06:37:51;11.10;99.90
59999;DHT22;45859;51.378;6.736;2023-04-28T06:40:16;11.20;99.90
59999;DHT22;45859;51.378;6.736;2023-04-28T06:42:42;11.20;99.90
59999;DHT22;45859;51.378;6.736;2023-04-28T06:45:08;11.40;99.90
59999;DHT22;45859;51.378;6.736;2023-04-28T06:47:34;11.40;99.90
59999;DHT22;45859;51.378;6.736;2023-04-28T06:50:01;11.30;99.90
59999;DHT22;45859;51.378;6.736;2023-04-28T06:52:27;11.40;99.90
59999;DHT22;45859;51.378;6.736;2023-04-28T06:54:54;11.40;99.90
59999;DHT22;45859;51.378;6.736;2023-04-28T06:57:19;11.60;99.90
59999;DHT22;45859;51.378;6.736;2023-04-28T06:59:45;11.90;99.90
59999;DHT22;45859;51.378;6.736;2023-04-28T07:02:11;12.20;99.90
59999;DHT22;45859;51.378;6.736;2023-04-28T07:04:37;12.30;99.90
59999;DHT22;45859;51.378;6.736;2023-04-28T07:07:03;12.50;99.90
59999;DHT22;45859;51.378;6.736;2023-04-28T07:09:35;12.40;99.90
59999;DHT22;45859;51.378;6.736;2023-04-28T07:12:02;12.60;99.90
59999;DHT22;45859;51.378;6.736;2023-04-28T07:14:29;12.50;99.90
59999;DHT22;45859;51.378;6.736;2023-04-28T07:16:55;12.40;99.90
59999;DHT22;45859;51.378;6.736;2023-04-28T07:19:20;12.40;99.90
59999;DHT22;45859;51.378;6.736;2023-04-28T07:21:46;12.40;99.90
59999;DHT22;45859;51.378;6.736;2023-04-28T07:24:12;12.30;99.90
59999;DHT22;45859;51.378;6.736;2023-04-28T07:26:37;12.30;99.90
59999;DHT22;45859;51.378;6.736;2023-04-28T07:29:03;12.40;99.90
59999;DHT22;45859;51.378;6.736;2023-04-28T07:31:29;12.50;99.90
59999;DHT22;45859;51.378;6.736;2023-04-28T07:33:55;11.70;99.90
59999;DHT22;45859;51.378;6.736;2023-04-28T07:36:21;12.80;99.90
59999;DHT22;45859;51.378;6.736;2023-04-28T07:38:47;12.90;99.90
59999;DHT22;45859;51.378;6.736;2023-04-28T07:41:13;13.00;99.90
59999;DHT22;45859;51.378;6.736;2023-04-28T07:43:39;12.90;99.90
59999;DHT22;45859;51.378;6.736;2023-04-28T07:46:06;12.80;99.90
59999;DHT22;45859;51.378;6.736;2023-04-28T07:48:33;12.70;99.90
59999;DHT22;45859;51.378;6.736;2023-04-28T07:50:59;12.70;99.90
59999;DHT22;45859;51.378;6.736;2023-04-28T07:53:25;12.80;99.90
59999;DHT22;45859;51.378;6.736;2023-04-28T07:55:51;12.90;99.90
59999;DHT22;45859;51.378;6.736;2023-04-28T07:58:16;13.00;99.90
59999;DHT22;45859;51.378;6.736;2023-04-28T08:00:45;13.00;99.90
59999;DHT22;45859;51.378;6.736;2023-04-28T08:03:11;13.10;99.90
59999;DHT22;45859;51.378;6.736;2023-04-28T08:05:40;13.10;99.90
59999;DHT22;45859;51.378;6.736;2023-04-28T08:08:05;13.10;99.90
59999;DHT22;45859;51.378;6.736;2023-04-28T08:10:31;13.20;99.90
59999;DHT22;45859;51.378;6.736;2023-04-28T08:12:57;13.20;99.90
59999;DHT22;45859;51.378;6.736;2023-04-28T08:15:23;13.20;99.90
59999;DHT22;45859;51.378;6.736;2023-04-28T08:17:50;13.20;99.90
59999;DHT22;45859;51.378;6.736;2023-04-28T08:20:16;13.10;99.90
59999;DHT22;45859;51.378;6.736;2023-04-28T08:22:44;13.00;99.90
59999;DHT22;45859;51.378;6.736;2023-04-28T08:25:10;13.20;99.90
59999;DHT22;45859;51.378;6.736;2023-04-28T08:27:36;13.30;99.90
59999;DHT22;45859;51.378;6.736;2023-04-28T08:30:08;13.10;99.90
59999;DHT22;45859;51.378;6.736;2023-04-28T08:32:34;13.20;99.90
59999;DHT22;45859;51.378;6.736;2023-04-28T08:35:00;13.00;99.90
59999;DHT22;45859;51.378;6.736;2023-04-28T08:37:26;13.30;99.90
59999;DHT22;45859;51.378;6.736;2023-04-28T08:39:52;13.60;99.90
59999;DHT22;45859;51.378;6.736;2023-04-28T08:42:28;13.60;99.90
59999;DHT22;45859;51.378;6.736;2023-04-28T08:44:56;13.70;99.90
59999;DHT22;45859;51.378;6.736;2023-04-28T08:47:42;13.80;99.90
59999;DHT22;45859;51.378;6.736;2023-04-28T08:50:13;13.60;99.90
59999;DHT22;45859;51.378;6.736;2023-04-28T08:52:39;13.50;99.90
59999;DHT22;45859;51.378;6.736;2023-04-28T08:55:08;13.60;99.90
59999;DHT22;45859;51.378;6.736;2023-04-28T09:00:04;13.70;99.90
59999;DHT22;45859;51.378;6.736;2023-04-28T09:02:30;13.80;99.90
59999;DHT22;45859;51.378;6.736;2023-04-28T09:04:55;13.70;99.90
59999;DHT22;45859;51.378;6.736;2023-04-28T09:07:21;13.60;99.90
59999;DHT22;45859;51.378;6.736;2023-04-28T09:09:47;13.60;99.90
59999;DHT22;45859;51.378;6.736;2023-04-28T09:12:13;13.70;99.90
59999;DHT22;45859;51.378;6.736;2023-04-28T09:14:39;13.70;99.90
59999;DHT22;45859;51.378;6.736;2023-04-28T09:17:12;14.00;99.90
59999;DHT22;45859;51.378;6.736;2023-04-28T09:19:39;14.10;99.90
59999;DHT22;45859;51.378;6.736;2023-04-28T09:22:07;14.10;99.90
59999;DHT22;45859;51.378;6.736;2023-04-28T09:24:37;14.00;99.90
59999;DHT22;45859;51.378;6.736;2023-04-28T09:27:09;14.20;99.90
59999;DHT22;45859;51.378;6.736;2023-04-28T09:29:51;14.40;99.90
59999;DHT22;45859;51.378;6.736;2023-04-28T09:32:19;14.50;99.90
59999;DHT22;45859;51.378;6.736;2023-04-28T09:34:48;14.50;99.90
59999;DHT22;45859;51.378;6.736;2023-04-28T09:37:15;14.50;99.90
59999;DHT22;45859;51.378;6.736;2023-04-28T09:39:43;14.70;99.90
59999;DHT22;45859;51.378;6.736;2023-04-28T09:42:09;14.90;99.90
59999;DHT22;45859;51.378;6.736;2023-04-28T09:44:35;15.00;99.90
59999;DHT22;45859;51.378;6.736;2023-04-28T09:47:19;14.90;99.90
59999;DHT22;45859;51.378;6.736;2023-04-28T09:49:57;14.80;99.90
59999;DHT22;45859;51.378;6.736;2023-04-28T09:52:24;14.70;99.90
59999;DHT22;45859;51.378;6.736;2023-04-28T09:54:52;14.60;99.90
59999;DHT22;45859;51.378;6.736;2023-04-28T09:57:18;14.70;99.90
59999;DHT22;45859;51.378;6.736;2023-04-28T09:59:52;14.60;99.90
59999;DHT22;45859;51.378;6.736;2023-04-28T10:02:19;14.40;99.90
59999;DHT22;45859;51.378;6.736;2023-04-28T10:04:47;14.40;99.90
59999;DHT22;45859;51.378;6.736;2023-04-28T10:07:14;14.20;99.90
59999;DHT22;45859;51.378;6.736;2023-04-28T10:09:44;14.00;99.90
59999;DHT22;45859;51.378;6.736;2023-04-28T10:12:21;14.00;99.90
59999;DHT22;45859;51.378;6.736;2023-04-28T10:14:48;14.20;99.90
59999;DHT22;45859;51.378;6.736;2023-04-28T10:17:16;14.10;99.90
59999;DHT22;45859;51.378;6.736;2023-04-28T10:19:44;14.00;99.90
59999;DHT22;45859;51.378;6.736;2023-04-28T10:22:28;14.10;99.90
59999;DHT22;45859;51.378;6.736;2023-04-28T10:27:46;14.30;99.90
59999;DHT22;45859;51.378;6.736;2023-04-28T10:30:20;14.30;99.90
59999;DHT22;45859;51.378;6.736;2023-04-28T10:32:47;14.40;99.90
59999;DHT22;45859;51.378;6.736;2023-04-28T10:38:08;14.50;99.90
59999;DHT22;45859;51.378;6.736;2023-04-28T10:40:36;14.40;99.90
59999;DHT22;45859;51.378;6.736;2023-04-28T10:43:03;14.40;99.90
59999;DHT22;45859;51.378;6.736;2023-04-28T10:48:14;14.40;99.90
59999;DHT22;45859;51.378;6.736;2023-04-28T10:56:25;14.00;99.90
59999;DHT22;45859;51.378;6.736;2023-04-28T11:16:52;14.30;99.90
59999;DHT22;45859;51.378;6.736;2023-04-28T11:21:52;14.20;99.90
59999;DHT22;45859;51.378;6.736;2023-04-28T11:24:18;14.10;99.90
59999;DHT22;45859;51.378;6.736;2023-04-28T11:26:44;14.10;99.90
59999;DHT22;45859;51.378;6.736;2023-04-28T11:29:10;14.30;99.90
59999;DHT22;45859;51.378;6.736;2023-04-28T11:31:37;14.00;99.90
59999;DHT22;45859;51.378;6.736;2023-04-28T11:34:11;14.00;99.90
59999;DHT22;45859;51.378;6.736;2023-04-28T11:36:39;16.50;99.90
59999;DHT22;45859;51.378;6.736;2023-04-28T11:39:09;14.10;99.90
59999;DHT22;45859;51.378;6.736;2023-04-28T11:41:40;14.10;99.90
59999;DHT22;45859;51.378;6.736;2023-04-28T11:44:10;14.00;99.90
59999;DHT22;45859;51.378;6.736;2023-04-28T11:46:47;14.20;99.90
59999;DHT22;45859;51.378;6.736;2023-04-28T11:49:16;14.30;99.90
59999;DHT22;45859;51.378;6.736;2023-04-28T11:51:42;14.70;99.90
59999;DHT22;45859;51.378;6.736;2023-04-28T11:54:10;14.50;99.90
59999;DHT22;45859;51.378;6.736;2023-04-28T11:56:40;15.10;99.90
59999;DHT22;45859;51.378;6.736;2023-04-28T11:59:10;14.80;99.90
59999;DHT22;45859;51.378;6.736;2023-04-28T12:01:50;15.00;99.90
59999;DHT22;45859;51.378;6.736;2023-04-28T12:04:32;15.20;99.90
59999;DHT22;45859;51.378;6.736;2023-04-28T12:07:16;15.50;99.90
59999;DHT22;45859;51.378;6.736;2023-04-28T12:09:43;15.80;99.90
59999;DHT22;45859;51.378;6.736;2023-04-28T12:12:11;16.10;99.90
59999;DHT22;45859;51.378;6.736;2023-04-28T12:17:29;16.40;99.90
59999;DHT22;45859;51.378;6.736;2023-04-28T12:19:58;16.50;99.90
59999;DHT22;45859;51.378;6.736;2023-04-28T12:22:24;16.60;99.90
59999;DHT22;45859;51.378;6.736;2023-04-28T12:25:03;16.60;99.90
59999;DHT22;45859;51.378;6.736;2023-04-28T12:27:29;16.80;99.90
59999;DHT22;45859;51.378;6.736;2023-04-28T12:29:56;17.00;99.90
59999;DHT22;45859;51.378;6.736;2023-04-28T12:32:38;17.40;99.90
59999;DHT22;45859;51.378;6.736;2023-04-28T12:35:04;17.90;99.90
59999;DHT22;45859;51.378;6.736;2023-04-28T12:37:30;18.10;99.90
59999;DHT22;45859;51.378;6.736;2023-04-28T12:39:57;18.40;99.90
59999;DHT22;45859;51.378;6.736;2023-04-28T12:42:23;18.40;99.90
59999;DHT22;45859;51.378;6.736;2023-04-28T12:44:48;18.40;99.90
59999;DHT22;45859;51.378;6.736;2023-04-28T12:47:15;18.50;99.90
59999;DHT22;45859;51.378;6.736;2023-04-28T12:49:43;18.40;99.90
59999;DHT22;45859;51.378;6.736;2023-04-28T12:52:09;18.60;99.90
59999;DHT22;45859;51.378;6.736;2023-04-28T12:54:34;18.60;99.90
59999;DHT22;45859;51.378;6.736;2023-04-28T12:57:01;18.60;99.90
59999;DHT22;45859;51.378;6.736;2023-04-28T12:59:27;18.70;99.90
59999;DHT22;45859;51.378;6.736;2023-04-28T13:01:53;18.80;99.90
59999;DHT22;45859;51.378;6.736;2023-04-28T13:04:20;18.90;99.90
59999;DHT22;45859;51.378;6.736;2023-04-28T13:06:46;19.00;99.90
59999;DHT22;45859;51.378;6.736;2023-04-28T13:09:13;19.10;99.90
59999;DHT22;45859;51.378;6.736;2023-04-28T13:11:40;19.30;99.90
59999;DHT22;45859;51.378;6.736;2023-04-28T13:14:06;19.40;99.90
59999;DHT22;45859;51.378;6.736;2023-04-28T13:16:31;19.40;99.90
59999;DHT22;45859;51.378;6.736;2023-04-28T13:18:58;19.30;99.90
59999;DHT22;45859;51.378;6.736;2023-04-28T13:21:24;19.10;99.90
59999;DHT22;45859;51.378;6.736;2023-04-28T13:23:54;19.00;99.90
59999;DHT22;45859;51.378;6.736;2023-04-28T13:26:20;19.00;99.90
59999;DHT22;45859;51.378;6.736;2023-04-28T13:28:47;19.20;99.90
59999;DHT22;45859;51.378;6.736;2023-04-28T13:31:13;20.40;99.90
59999;DHT22;45859;51.378;6.736;2023-04-28T13:33:39;19.20;99.90
59999;DHT22;45859;51.378;6.736;2023-04-28T13:36:05;19.30;99.90
59999;DHT22;45859;51.378;6.736;2023-04-28T13:38:32;19.20;99.90
59999;DHT22;45859;51.378;6.736;2023-04-28T13:40:58;19.10;99.90
59999;DHT22;45859;51.378;6.736;2023-04-28T13:43:25;19.00;99.90
59999;DHT22;45859;51.378;6.736;2023-04-28T13:45:50;18.90;99.90
59999;DHT22;45859;51.378;6.736;2023-04-28T13:48:16;18.90;99.90
59999;DHT22;45859;51.378;6.736;2023-04-28T13:50:42;19.00;99.90
59999;DHT22;45859;51.378;6.736;2023-04-28T13:53:08;19.20;99.90
59999;DHT22;45859;51.378;6.736;2023-04-28T13:55:33;19.30;99.90
59999;DHT22;45859;51.378;6.736;2023-04-28T13:57:59;19.50;99.90
59999;DHT22;45859;51.378;6.736;2023-04-28T14:00:33;19.60;99.90
59999;DHT22;45859;51.378;6.736;2023-04-28T14:02:59;19.70;99.90
59999;DHT22;45859;51.378;6.736;2023-04-28T14:05:25;19.70;99.90
59999;DHT22;45859;51.378;6.736;2023-04-28T14:07:54;19.70;99.90
59999;DHT22;45859;51.378;6.736;2023-04-28T14:10:20;19.70;99.90
59999;DHT22;45859;51.378;6.736;2023-04-28T14:12:46;19.40;99.90
59999;DHT22;45859;51.378;6.736;2023-04-28T14:15:12;19.30;99.90
59999;DHT22;45859;51.378;6.736;2023-04-28T14:17:38;19.40;99.90
59999;DHT22;45859;51.378;6.736;2023-04-28T14:20:04;19.80;99.90
59999;DHT22;45859;51.378;6.736;2023-04-28T14:22:29;20.10;99.90
59999;DHT22;45859;51.378;6.736;2023-04-28T14:24:55;20.00;99.90
59999;DHT22;45859;51.378;6.736;2023-04-28T14:27:21;19.90;99.90
59999;DHT22;45859;51.378;6.736;2023-04-28T14:29:47;19.80;99.90
59999;DHT22;45859;51.378;6.736;2023-04-28T14:32:15;19.80;99.90
59999;DHT22;45859;51.378;6.736;2023-04-28T14:34:46;19.80;99.90
59999;DHT22;45859;51.378;6.736;2023-04-28T14:37:12;19.80;99.90
59999;DHT22;45859;51.378;6.736;2023-04-28T14:39:37;19.60;99.90
59999;DHT22;45859;51.378;6.736;2023-04-28T14:42:04;19.40;99.90
59999;DHT22;45859;51.378;6.736;2023-04-28T14:44:30;19.30;99.90
59999;DHT22;45859;51.378;6.736;2023-04-28T14:46:56;19.10;99.90
59999;DHT22;45859;51.378;6.736;2023-04-28T14:49:22;19.00;99.90
59999;DHT22;45859;51.378;6.736;2023-04-28T14:51:48;19.10;99.90
59999;DHT22;45859;51.378;6.736;2023-04-28T14:54:14;18.90;99.90
59999;DHT22;45859;51.378;6.736;2023-04-28T14:56:39;18.90;99.90
59999;DHT22;45859;51.378;6.736;2023-04-28T14:59:05;18.70;99.90
59999;DHT22;45859;51.378;6.736;2023-04-28T15:01:31;18.60;99.90
59999;DHT22;45859;51.378;6.736;2023-04-28T15:03:56;18.40;99.90
59999;DHT22;45859;51.378;6.736;2023-04-28T15:06:22;18.10;99.90
59999;DHT22;45859;51.378;6.736;2023-04-28T15:08:48;18.00;99.90
59999;DHT22;45859;51.378;6.736;2023-04-28T15:11:14;17.80;99.90
59999;DHT22;45859;51.378;6.736;2023-04-28T15:13:39;17.50;99.90
59999;DHT22;45859;51.378;6.736;2023-04-28T15:16:05;17.30;99.90
59999;DHT22;45859;51.378;6.736;2023-04-28T15:18:31;17.20;99.90
59999;DHT22;45859;51.378;6.736;2023-04-28T15:20:57;16.90;99.90
59999;DHT22;45859;51.378;6.736;2023-04-28T15:23:22;16.80;99.90
59999;DHT22;45859;51.378;6.736;2023-04-28T15:25:48;16.70;99.90
59999;DHT22;45859;51.378;6.736;2023-04-28T15:28:17;16.50;99.90
59999;DHT22;45859;51.378;6.736;2023-04-28T15:30:43;16.30;99.90
59999;DHT22;45859;51.378;6.736;2023-04-28T15:33:09;16.10;99.90
59999;DHT22;45859;51.378;6.736;2023-04-28T15:35:41;16.10;99.90
59999;DHT22;45859;51.378;6.736;2023-04-28T15:38:07;16.00;99.90
59999;DHT22;45859;51.378;6.736;2023-04-28T15:40:33;16.00;99.90
59999;DHT22;45859;51.378;6.736;2023-04-28T15:42:59;16.10;99.90
59999;DHT22;45859;51.378;6.736;2023-04-28T15:45:25;16.20;99.90
59999;DHT22;45859;51.378;6.736;2023-04-28T15:47:51;16.40;99.90
59999;DHT22;45859;51.378;6.736;2023-04-28T15:50:21;16.60;99.90
59999;DHT22;45859;51.378;6.736;2023-04-28T15:52:47;16.50;99.90
59999;DHT22;45859;51.378;6.736;2023-04-28T15:55:18;16.70;99.90
59999;DHT22;45859;51.378;6.736;2023-04-28T15:57:45;16.80;99.90
59999;DHT22;45859;51.378;6.736;2023-04-28T16:00:11;16.80;99.90
59999;DHT22;45859;51.378;6.736;2023-04-28T16:02:39;16.70;99.90
59999;DHT22;45859;51.378;6.736;2023-04-28T16:05:06;17.00;99.90
59999;DHT22;45859;51.378;6.736;2023-04-28T16:07:32;16.70;99.90
59999;DHT22;45859;51.378;6.736;2023-04-28T16:10:07;16.80;99.90
59999;DHT22;45859;51.378;6.736;2023-04-28T16:12:33;16.80;99.90
59999;DHT22;45859;51.378;6.736;2023-04-28T16:14:59;16.80;99.90